createdAt,value
2022-09-27T00:04:14.392Z,53.74
2022-09-27T00:09:36.314Z,53.38
2022-09-27T00:14:57.943Z,53.96
2022-09-27T00:20:21.965Z,53.56
2022-09-27T00:25:43.595Z,53.52
2022-09-27T00:31:05.573Z,53.38
2022-09-27T00:36:28.631Z,53.74
2022-09-27T00:41:50.840Z,53.46
2022-09-27T00:47:35.926Z,53.20
2022-09-27T00:53:10.606Z,53.27
2022-09-27T00:58:37.430Z,53.28
2022-09-27T01:04:08.165Z,53.44
2022-09-27T01:09:30.329Z,53.20
2022-09-27T01:14:54.734Z,53.59
2022-09-27T01:20:41.266Z,53.30
2022-09-27T01:26:50.964Z,53.48
2022-09-27T01:32:23.997Z,53.29
2022-09-27T01:37:55.333Z,53.49
2022-09-27T01:43:23.202Z,53.40
2022-09-27T01:48:48.955Z,53.07
2022-09-27T01:54:14.923Z,53.05
2022-09-27T01:59:50.690Z,53.33
2022-09-27T02:05:14.417Z,53.18
2022-09-27T02:10:43.842Z,53.21
2022-09-27T02:16:28.967Z,53.47
2022-09-27T02:22:06.976Z,53.35
2022-09-27T02:27:34.397Z,53.25
2022-09-27T02:32:56.113Z,53.38
2022-09-27T02:38:18.183Z,53.39
2022-09-27T02:43:40.084Z,53.12
2022-09-27T02:49:38.972Z,53.13
2022-09-27T02:55:00.643Z,53.31
2022-09-27T03:00:27.871Z,53.14
2022-09-27T03:05:59.009Z,53.29
2022-09-27T03:11:20.626Z,53.48
2022-09-27T03:16:42.459Z,53.06
2022-09-27T03:22:04.259Z,53.26
2022-09-27T03:27:25.897Z,53.49
2022-09-27T03:32:47.568Z,53.48
2022-09-27T03:38:10.930Z,53.27
2022-09-27T03:43:32.609Z,53.18
2022-09-27T03:48:54.524Z,53.28
2022-09-27T03:54:16.282Z,53.35
2022-09-27T03:59:37.919Z,53.39
2022-09-27T04:04:59.639Z,53.41
2022-09-27T04:10:21.828Z,53.36
2022-09-27T04:15:43.569Z,53.36
2022-09-27T04:21:05.424Z,53.15
2022-09-27T04:26:27.158Z,53.14
2022-09-27T04:31:48.801Z,53.09
2022-09-27T04:37:11.627Z,53.32
2022-09-27T04:42:34.203Z,53.41
2022-09-27T04:47:56.039Z,53.16
2022-09-27T04:53:17.686Z,53.04
2022-09-27T04:58:39.855Z,53.02
2022-09-27T05:04:01.680Z,52.81
2022-09-27T05:09:23.371Z,53.08
2022-09-27T05:14:45.262Z,52.92
2022-09-27T05:20:07.224Z,53.00
2022-09-27T05:25:28.901Z,52.94
2022-09-27T05:30:50.728Z,53.05
2022-09-27T05:36:12.831Z,52.82
2022-09-27T05:41:34.599Z,53.03
2022-09-27T05:46:56.314Z,53.05
2022-09-27T05:52:20.194Z,53.01
2022-09-27T05:57:43.178Z,53.09
2022-09-27T06:03:06.453Z,52.72
2022-09-27T06:08:28.138Z,52.55
2022-09-27T06:13:49.831Z,52.94
2022-09-27T06:19:11.909Z,52.63
2022-09-27T06:24:33.527Z,52.61
2022-09-27T06:29:56.121Z,52.57
2022-09-27T06:35:17.765Z,52.82
2022-09-27T06:40:40.182Z,52.42
2022-09-27T06:46:06.020Z,52.52
2022-09-27T06:51:27.789Z,52.63
2022-09-27T07:02:11.160Z,52.73
2022-09-27T07:07:32.901Z,52.48
2022-09-27T07:12:55.855Z,52.38
2022-09-27T07:18:17.596Z,52.49
2022-09-27T07:23:39.576Z,52.59
2022-09-27T07:29:01.720Z,52.31
2022-09-27T07:34:23.349Z,52.51
2022-09-27T07:39:45.275Z,52.60
2022-09-27T07:45:09.256Z,52.59
2022-09-27T07:50:31.111Z,51.89
2022-09-27T07:55:53.813Z,51.34
2022-09-27T08:01:15.596Z,51.47
2022-09-27T08:06:37.296Z,50.93
2022-09-27T08:11:59.010Z,51.33
2022-09-27T08:17:20.649Z,51.02
2022-09-27T08:22:46.085Z,51.03
2022-09-27T08:28:07.716Z,51.40
2022-09-27T08:33:32.897Z,51.17
2022-09-27T08:38:59.214Z,51.65
2022-09-27T08:44:36.677Z,51.15
2022-09-27T08:50:17.197Z,50.98
2022-09-27T08:55:42.977Z,51.25
2022-09-27T09:01:12.379Z,50.80
2022-09-27T09:07:01.549Z,50.97
2022-09-27T09:12:49.354Z,50.83
2022-09-27T09:18:17.049Z,51.02
2022-09-27T09:23:54.558Z,51.20
2022-09-27T09:29:28.382Z,50.87
2022-09-27T09:34:58.323Z,51.25
2022-09-27T09:40:29.226Z,51.01
2022-09-27T09:45:58.098Z,50.73
2022-09-27T09:51:30.268Z,50.87
2022-09-27T09:57:06.004Z,50.07
2022-09-27T10:02:33.091Z,49.56
2022-09-27T10:07:59.457Z,49.70
2022-09-27T10:13:22.788Z,49.08
2022-09-27T10:18:50.134Z,49.30
2022-09-27T10:24:18.864Z,48.76
2022-09-27T10:29:40.702Z,49.18
2022-09-27T10:35:32.190Z,49.30
2022-09-27T10:40:56.220Z,49.40
2022-09-27T10:46:34.412Z,49.30
2022-09-27T10:52:08.874Z,49.52
2022-09-27T10:57:31.835Z,49.30
2022-09-27T11:02:57.799Z,49.55
2022-09-27T11:08:19.424Z,49.32
2022-09-27T11:13:42.053Z,49.17
2022-09-27T11:19:21.410Z,47.98
2022-09-27T11:25:04.738Z,47.77
2022-09-27T11:30:35.971Z,47.10
2022-09-27T11:36:05.022Z,47.06
2022-09-27T11:41:51.572Z,46.65
2022-09-27T11:47:20.669Z,46.71
2022-09-27T11:53:24.692Z,46.38
2022-09-27T11:59:24.942Z,45.56
2022-09-27T12:04:58.981Z,44.83
2022-09-27T12:10:21.901Z,45.05
2022-09-27T12:15:47.751Z,44.76
2022-09-27T12:21:11.207Z,44.60
2022-09-27T12:26:44.898Z,44.17
2022-09-27T12:32:19.449Z,43.38
2022-09-27T12:37:48.697Z,44.40
2022-09-27T12:43:19.624Z,42.41
2022-09-27T12:49:05.034Z,43.27
2022-09-27T12:54:53.870Z,41.52
2022-09-27T13:00:21.433Z,41.93
2022-09-27T13:05:59.828Z,42.20
2022-09-27T13:11:39.955Z,42.73
2022-09-27T13:17:01.927Z,42.50
2022-09-27T13:22:37.566Z,43.04
2022-09-27T13:27:59.178Z,43.20
2022-09-27T13:33:43.333Z,43.45
2022-09-27T13:39:06.790Z,43.27
2022-09-27T13:44:49.164Z,43.68
2022-09-27T13:50:18.407Z,43.73
2022-09-27T13:55:51.546Z,44.14
2022-09-27T14:01:13.228Z,44.14
2022-09-27T14:06:42.189Z,44.47
2022-09-27T14:12:12.331Z,44.84
2022-09-27T14:17:34.320Z,44.90
2022-09-27T14:22:56.014Z,45.01
2022-09-27T14:28:26.562Z,44.69
2022-09-27T14:33:48.684Z,44.92
2022-09-27T14:39:16.147Z,45.32
2022-09-27T14:44:43.967Z,45.08
2022-09-27T14:50:20.328Z,45.09
2022-09-27T14:55:45.598Z,45.57
2022-09-27T15:01:07.322Z,45.30
2022-09-27T15:06:29.153Z,45.96
2022-09-27T15:11:57.270Z,46.02
2022-09-27T15:17:21.601Z,45.88
2022-09-27T15:22:47.569Z,45.68
2022-09-27T15:28:12.204Z,45.71
2022-09-27T15:33:36.836Z,45.70
2022-09-27T15:39:10.417Z,45.81
2022-09-27T15:44:50.177Z,46.13
2022-09-27T15:50:20.555Z,46.63
2022-09-27T15:55:44.160Z,46.73
2022-09-27T16:01:06.412Z,47.26
2022-09-27T16:06:29.179Z,47.19
2022-09-27T16:11:51.200Z,47.78
2022-09-27T16:17:13.068Z,47.56
2022-09-27T16:22:34.818Z,47.48
2022-09-27T16:28:01.042Z,47.54
2022-09-27T16:33:22.772Z,47.46
2022-09-27T16:38:44.449Z,47.71
2022-09-27T16:44:13.944Z,47.90
2022-09-27T16:49:54.419Z,47.74
2022-09-27T16:55:24.252Z,47.60
2022-09-27T17:00:45.956Z,47.90
2022-09-27T17:06:07.758Z,47.95
2022-09-27T17:11:29.970Z,47.92
2022-09-27T17:16:52.757Z,48.44
2022-09-27T17:22:14.514Z,48.35
2022-09-27T17:27:36.160Z,48.70
2022-09-27T17:32:58.290Z,48.95
2022-09-27T17:38:20.600Z,49.01
2022-09-27T17:43:49.721Z,49.14
2022-09-27T17:49:31.182Z,49.19
2022-09-27T17:54:57.651Z,49.04
2022-09-27T18:00:20.568Z,48.98
2022-09-27T18:05:42.516Z,49.32
2022-09-27T18:11:06.161Z,49.16
2022-09-27T18:16:35.114Z,48.96
2022-09-27T18:21:57.026Z,49.16
2022-09-27T18:27:20.213Z,49.20
2022-09-27T18:32:41.851Z,48.85
2022-09-27T18:38:03.551Z,48.41
2022-09-27T18:43:25.975Z,48.44
2022-09-27T18:48:47.650Z,48.26
2022-09-27T18:54:20.392Z,47.49
2022-09-27T18:59:42.072Z,47.08
2022-09-27T19:05:04.002Z,47.50
2022-09-27T19:10:25.818Z,47.09
2022-09-27T19:15:57.949Z,47.14
2022-09-27T19:21:22.747Z,47.51
2022-09-27T19:26:44.543Z,47.54
2022-09-27T19:32:06.628Z,47.46
2022-09-27T19:37:28.245Z,47.60
2022-09-27T19:42:53.698Z,47.96
2022-09-27T19:48:15.423Z,48.23
2022-09-27T19:53:37.051Z,48.07
2022-09-27T19:58:58.697Z,48.27
2022-09-27T20:04:23.698Z,48.50
2022-09-27T20:09:48.184Z,48.70
2022-09-27T20:15:09.981Z,48.77
2022-09-27T20:20:31.601Z,48.79
2022-09-27T20:25:53.191Z,48.70
2022-09-27T20:31:17.917Z,48.59
2022-09-27T20:36:45.255Z,48.49
2022-09-27T20:42:06.960Z,48.71
2022-09-27T20:47:28.647Z,48.54
2022-09-27T20:52:50.603Z,48.53
2022-09-27T20:58:12.229Z,48.81
2022-09-27T21:03:34.652Z,48.69
2022-09-27T21:08:56.408Z,48.75
2022-09-27T21:14:18.204Z,48.80
2022-09-27T21:19:39.957Z,48.54
2022-09-27T21:25:01.698Z,48.58
2022-09-27T21:30:24.337Z,48.74
2022-09-27T21:35:50.092Z,48.71
2022-09-27T21:41:16.859Z,49.03
2022-09-27T21:46:40.954Z,48.78
2022-09-27T21:52:02.750Z,49.03
2022-09-27T21:57:24.354Z,48.74
2022-09-27T22:02:46.065Z,49.12
2022-09-27T22:08:07.795Z,49.13
2022-09-27T22:13:29.671Z,48.67
2022-09-27T22:18:53.277Z,48.68
2022-09-27T22:24:17.411Z,49.08
2022-09-27T22:29:39.040Z,48.69
2022-09-27T22:35:00.688Z,48.94
2022-09-27T22:40:22.361Z,48.77
2022-09-27T22:45:44.069Z,49.17
2022-09-27T22:51:07.940Z,49.16
2022-09-27T22:56:29.592Z,49.19
2022-09-27T23:01:51.322Z,49.16
2022-09-27T23:07:13.462Z,49.20
2022-09-27T23:12:35.218Z,49.15
2022-09-27T23:17:56.874Z,48.72
2022-09-27T23:23:18.506Z,48.78
2022-09-27T23:28:40.821Z,49.14
2022-09-27T23:34:04.660Z,49.15
2022-09-27T23:39:26.473Z,49.03
2022-09-27T23:44:48.113Z,48.83
2022-09-27T23:50:09.960Z,48.74
2022-09-27T23:55:31.575Z,48.91
